METAR AND TAF INFORMATION
METAR FOR LGIR
ADDS - METARS form results

(0723 UTC 23 April 2018)
Data provider http://aviationweather.gov/adds/metars/
 
METAR text: LGIR 230650Z VRB03KT CAVOK 19/08 Q1015 NOSIG
Conditions at: LGIR (IRAKLION (CIV/AF, GR) observed 0650 UTC 23 April 2018
Temperature: 19.0°C (66°F)
Dewpoint: 8.0°C (46°F) [RH = 49%]
Pressure (altimeter): 29.97 inches Hg (1015.0 mb)
Winds: variable direction winds at 3 MPH (3 knots; 1.6 m/s)
Visibility: 6 or more miles (10+ km)
Ceiling: ceiling and visibility are OK
Clouds: unknown
Weather: no significant weather observed at this time

Forecast for: LGIR (IRAKLION (CIV/AF, GR)
Text: TAF LGIR 230500Z 2306/2406 17008KT 9999 FEW020
Forecast period: 0600 UTC 23 April 2018 to 0600 UTC 24 April 2018
Forecast type: FROM: standard forecast or significant change
Winds: from the S (170 degrees) at 9 MPH (8 knots; 4.2 m/s)
Visibility: 6 or more miles (10+ km)
Clouds: few clouds at 2000 feet AGL
Weather: no significant weather forecast for this period
Forecast for: LGIR (IRAKLION (CIV/AF, GR)
Text: TAF LGIR 230500Z 2306/2406 17008KT 9999 FEW020
Forecast period: 0600 UTC 23 April 2018 to 0600 UTC 24 April 2018
Forecast type: FROM: standard forecast or significant change
Winds: from the S (170 degrees) at 9 MPH (8 knots; 4.2 m/s)
Visibility: 6 or more miles (10+ km)
Clouds: few clouds at 2000 feet AGL
Weather: no significant weather forecast for this period
Forecast for: LGIR (IRAKLION (CIV/AF, GR)
Text: TAF LGIR 230500Z 2306/2406 17008KT 9999 FEW020
Forecast period: 0600 to 1800 UTC 23 April 2018
Forecast type: BECOMING: Conditions expected to become as follows by 0800 UTC 23 April 2018
Winds: from the NW (320 degrees) at 12 MPH (10 knots; 5.2 m/s)
Visibility: 6 or more miles (10+ km)
Clouds: few clouds at 2000 feet AGL
Weather: no significant weather forecast for this period
Forecast for: LGIR (IRAKLION (CIV/AF, GR)
Text: TAF LGIR 230500Z 2306/2406 17008KT 9999 FEW020
Forecast period: 0600 to 1800 UTC 23 April 2018
Forecast type: BECOMING: Conditions expected to become as follows by 0800 UTC 23 April 2018
Winds: from the NW (320 degrees) at 12 MPH (10 knots; 5.2 m/s)
Visibility: 6 or more miles (10+ km)
Clouds: few clouds at 2000 feet AGL
Weather: no significant weather forecast for this period
Forecast for: LGIR (IRAKLION (CIV/AF, GR)
Text: TAF LGIR 230500Z 2306/2406 17008KT 9999 FEW020
Forecast period: 1100 to 1500 UTC 23 April 2018
Forecast type: TEMPORARY: The following changes expected for less than half the time period
Clouds: scattered clouds at 2000 feet AGL
Weather: no significant weather forecast for this period
Forecast for: LGIR (IRAKLION (CIV/AF, GR)
Text: TAF LGIR 230500Z 2306/2406 17008KT 9999 FEW020
Forecast period: 1100 to 1500 UTC 23 April 2018
Forecast type: TEMPORARY: The following changes expected for less than half the time period
Clouds: scattered clouds at 2000 feet AGL
Weather: no significant weather forecast for this period
Forecast for: LGIR (IRAKLION (CIV/AF, GR)
Text: TAF LGIR 230500Z 2306/2406 17008KT 9999 FEW020
Forecast period: 1800 UTC 23 April 2018 to 0600 UTC 24 April 2018
Forecast type: BECOMING: Conditions expected to become as follows by 2000 UTC 23 April 2018
Winds: from the S (170 degrees) at 9 MPH (8 knots; 4.2 m/s)
Visibility: 6 or more miles (10+ km)
Clouds: few clouds at 2000 feet AGL
Weather: no significant weather forecast for this period
Forecast for: LGIR (IRAKLION (CIV/AF, GR)
Text: TAF LGIR 230500Z 2306/2406 17008KT 9999 FEW020
Forecast period: 1800 UTC 23 April 2018 to 0600 UTC 24 April 2018
Forecast type: BECOMING: Conditions expected to become as follows by 2000 UTC 23 April 2018
Winds: from the S (170 degrees) at 9 MPH (8 knots; 4.2 m/s)
Visibility: 6 or more miles (10+ km)
Clouds: few clouds at 2000 feet AGL
Weather: no significant weather forecast for this period

 AIRPORT MAP

 RUNWAY INFORMATION
Runway 09 Runway length 8800 ft Runway width 148 ft
Runway elevation 78 ft Runway displaced threshold 1565 ft Runway heading 95
Runway 27 Runway length 8800 ft Runway width 148 ft
Runway elevation 82 ft Runway displaced threshold 0 ft Runway heading 275
Runway 12 Runway length 5138 ft Runway width 164 ft
Runway elevation 57 ft Runway displaced threshold 499 ft Runway heading 126
Runway 30 Runway length 5138 ft Runway width 164 ft
Runway elevation 115 ft Runway displaced threshold 0 ft Runway heading 306
Runway 18 Runway length 2559 ft Runway width 131 ft
Runway elevation 78 ft Runway displaced threshold 0 ft Runway heading 180
Runway 36 Runway length 2559 ft Runway width 131 ft
Runway elevation 115 ft Runway displaced threshold 328 ft Runway heading 0

 AIRPORT FREQUENCIES
Type A/G Name KAZANTZAKI Frequency 563.7 MHZ
Type APP Name IRAKLION A Frequency 123.975 MHZ
Type ATIS Name ATIS Frequency 127.55 MHZ
Type DIR Name IRAKLION D Frequency 118.025 MHZ
Type GND Name KAZANTZAKI Frequency 121.7 MHZ
Type TRSA Name IRAKLION R Frequency 123.975 MHZ
Type TWR Name KAZANTZAKI Frequency 120.85 MHZ

 AIRPORT NEAR NAVIGATION AIDS
Type NDB Name Iraklion Frequency 431 KHZ
Type VOR-DME Name Iraklion Frequency 108800 KHZ
Type TACAN Name Iraklion Frequency 108300 KHZ



Air Greece virtual AIrline - All rights reserved 2018 - Powered by Virtual Airlines Manager [v2.6.2]